sensor_id;sensor_type;location;lat;lon;timestamp;P1;durP1;ratioP1;P2;durP2;ratioP2
38935;SDS011;66589;47.458;9.644;2023-06-10T03:18:02;5.13;;;2.60;;
38935;SDS011;66589;47.458;9.644;2023-06-10T03:20:28;5.80;;;2.95;;
38935;SDS011;66589;47.458;9.644;2023-06-10T03:22:55;6.70;;;2.83;;
38935;SDS011;66589;47.458;9.644;2023-06-10T03:25:20;4.78;;;3.08;;
38935;SDS011;66589;47.458;9.644;2023-06-10T03:27:46;6.20;;;3.08;;
38935;SDS011;66589;47.458;9.644;2023-06-10T03:30:13;6.95;;;3.10;;
38935;SDS011;66589;47.458;9.644;2023-06-10T03:32:39;4.78;;;2.50;;
38935;SDS011;66589;47.458;9.644;2023-06-10T03:35:06;6.32;;;2.55;;
38935;SDS011;66589;47.458;9.644;2023-06-10T03:37:32;6.10;;;3.10;;
38935;SDS011;66589;47.458;9.644;2023-06-10T03:39:58;4.57;;;2.78;;
38935;SDS011;66589;47.458;9.644;2023-06-10T03:42:23;6.07;;;3.42;;
38935;SDS011;66589;47.458;9.644;2023-06-10T03:44:50;6.72;;;3.03;;
38935;SDS011;66589;47.458;9.644;2023-06-10T03:47:15;6.53;;;3.50;;
38935;SDS011;66589;47.458;9.644;2023-06-10T03:49:41;4.82;;;2.95;;
38935;SDS011;66589;47.458;9.644;2023-06-10T03:52:07;6.43;;;2.83;;
38935;SDS011;66589;47.458;9.644;2023-06-10T03:54:33;8.43;;;2.97;;
38935;SDS011;66589;47.458;9.644;2023-06-10T03:57:01;4.78;;;2.90;;
38935;SDS011;66589;47.458;9.644;2023-06-10T03:59:28;4.82;;;2.75;;
38935;SDS011;66589;47.458;9.644;2023-06-10T04:01:54;6.63;;;3.20;;
38935;SDS011;66589;47.458;9.644;2023-06-10T04:04:20;5.07;;;3.13;;
38935;SDS011;66589;47.458;9.644;2023-06-10T04:06:45;5.25;;;3.38;;
38935;SDS011;66589;47.458;9.644;2023-06-10T04:09:12;6.55;;;3.40;;
38935;SDS011;66589;47.458;9.644;2023-06-10T04:11:37;7.90;;;3.67;;
38935;SDS011;66589;47.458;9.644;2023-06-10T04:14:03;5.85;;;3.67;;
38935;SDS011;66589;47.458;9.644;2023-06-10T04:16:29;5.88;;;3.58;;
38935;SDS011;66589;47.458;9.644;2023-06-10T04:18:54;6.20;;;3.65;;
38935;SDS011;66589;47.458;9.644;2023-06-10T04:21:20;8.60;;;4.60;;
38935;SDS011;66589;47.458;9.644;2023-06-10T04:23:46;8.52;;;3.83;;
38935;SDS011;66589;47.458;9.644;2023-06-10T04:26:12;6.03;;;3.80;;
38935;SDS011;66589;47.458;9.644;2023-06-10T04:28:38;6.30;;;3.10;;
38935;SDS011;66589;47.458;9.644;2023-06-10T04:31:04;7.80;;;4.18;;
38935;SDS011;66589;47.458;9.644;2023-06-10T04:33:30;7.00;;;4.50;;
38935;SDS011;66589;47.458;9.644;2023-06-10T04:35:56;8.07;;;4.18;;
38935;SDS011;66589;47.458;9.644;2023-06-10T04:38:22;7.45;;;4.25;;
38935;SDS011;66589;47.458;9.644;2023-06-10T04:40:48;6.00;;;4.22;;
38935;SDS011;66589;47.458;9.644;2023-06-10T04:43:14;8.75;;;4.25;;
38935;SDS011;66589;47.458;9.644;2023-06-10T04:45:39;6.88;;;4.68;;
38935;SDS011;66589;47.458;9.644;2023-06-10T04:48:09;7.47;;;4.38;;
38935;SDS011;66589;47.458;9.644;2023-06-10T04:50:36;6.82;;;3.85;;
38935;SDS011;66589;47.458;9.644;2023-06-10T04:53:02;5.65;;;4.28;;
38935;SDS011;66589;47.458;9.644;2023-06-10T04:55:28;6.60;;;4.57;;
38935;SDS011;66589;47.458;9.644;2023-06-10T04:57:53;7.20;;;4.25;;
38935;SDS011;66589;47.458;9.644;2023-06-10T05:00:19;8.27;;;4.80;;
38935;SDS011;66589;47.458;9.644;2023-06-10T05:02:45;8.15;;;4.78;;
38935;SDS011;66589;47.458;9.644;2023-06-10T05:07:43;9.98;;;5.18;;
38935;SDS011;66589;47.458;9.644;2023-06-10T05:10:09;6.53;;;4.45;;
38935;SDS011;66589;47.458;9.644;2023-06-10T05:12:35;7.78;;;4.88;;
38935;SDS011;66589;47.458;9.644;2023-06-10T05:15:00;6.13;;;5.18;;
38935;SDS011;66589;47.458;9.644;2023-06-10T05:17:27;7.50;;;4.80;;
38935;SDS011;66589;47.458;9.644;2023-06-10T05:19:53;7.43;;;5.18;;
38935;SDS011;66589;47.458;9.644;2023-06-10T05:22:19;9.15;;;4.45;;
38935;SDS011;66589;47.458;9.644;2023-06-10T05:24:44;8.85;;;4.97;;
38935;SDS011;66589;47.458;9.644;2023-06-10T05:27:10;6.75;;;5.05;;
38935;SDS011;66589;47.458;9.644;2023-06-10T05:29:36;7.82;;;5.78;;
38935;SDS011;66589;47.458;9.644;2023-06-10T05:32:02;8.73;;;5.35;;
38935;SDS011;66589;47.458;9.644;2023-06-10T05:34:29;6.57;;;5.47;;
38935;SDS011;66589;47.458;9.644;2023-06-10T05:36:55;5.80;;;5.15;;
38935;SDS011;66589;47.458;9.644;2023-06-10T05:39:20;8.10;;;5.30;;
38935;SDS011;66589;47.458;9.644;2023-06-10T05:41:46;7.35;;;5.68;;
38935;SDS011;66589;47.458;9.644;2023-06-10T05:44:12;8.05;;;5.00;;
38935;SDS011;66589;47.458;9.644;2023-06-10T05:46:37;10.75;;;5.63;;
38935;SDS011;66589;47.458;9.644;2023-06-10T05:49:03;7.70;;;6.13;;
38935;SDS011;66589;47.458;9.644;2023-06-10T05:51:28;10.00;;;5.53;;
38935;SDS011;66589;47.458;9.644;2023-06-10T05:53:54;5.97;;;4.50;;
38935;SDS011;66589;47.458;9.644;2023-06-10T05:56:20;7.10;;;4.90;;
38935;SDS011;66589;47.458;9.644;2023-06-10T05:58:49;8.52;;;5.68;;
38935;SDS011;66589;47.458;9.644;2023-06-10T06:01:14;8.63;;;5.78;;
38935;SDS011;66589;47.458;9.644;2023-06-10T06:03:40;5.95;;;5.22;;
38935;SDS011;66589;47.458;9.644;2023-06-10T06:06:06;10.57;;;6.25;;
38935;SDS011;66589;47.458;9.644;2023-06-10T06:08:32;7.63;;;4.65;;
38935;SDS011;66589;47.458;9.644;2023-06-10T06:10:57;9.10;;;5.90;;
38935;SDS011;66589;47.458;9.644;2023-06-10T06:13:23;9.57;;;5.25;;
38935;SDS011;66589;47.458;9.644;2023-06-10T06:15:49;10.25;;;6.18;;
38935;SDS011;66589;47.458;9.644;2023-06-10T06:18:15;8.93;;;5.45;;
38935;SDS011;66589;47.458;9.644;2023-06-10T06:20:41;8.93;;;6.03;;
38935;SDS011;66589;47.458;9.644;2023-06-10T06:23:07;8.75;;;6.05;;
38935;SDS011;66589;47.458;9.644;2023-06-10T06:25:35;6.70;;;6.00;;
38935;SDS011;66589;47.458;9.644;2023-06-10T06:28:01;8.43;;;6.18;;
38935;SDS011;66589;47.458;9.644;2023-06-10T06:30:27;11.05;;;6.80;;
38935;SDS011;66589;47.458;9.644;2023-06-10T06:32:52;9.63;;;6.47;;
38935;SDS011;66589;47.458;9.644;2023-06-10T06:35:18;8.35;;;5.97;;
38935;SDS011;66589;47.458;9.644;2023-06-10T06:37:44;8.23;;;6.40;;
38935;SDS011;66589;47.458;9.644;2023-06-10T06:40:10;10.85;;;6.80;;
38935;SDS011;66589;47.458;9.644;2023-06-10T06:42:36;13.52;;;7.32;;
38935;SDS011;66589;47.458;9.644;2023-06-10T06:45:02;11.23;;;5.90;;
38935;SDS011;66589;47.458;9.644;2023-06-10T06:47:27;7.47;;;6.38;;
38935;SDS011;66589;47.458;9.644;2023-06-10T06:49:53;8.20;;;6.65;;
38935;SDS011;66589;47.458;9.644;2023-06-10T06:52:19;10.82;;;5.85;;
38935;SDS011;66589;47.458;9.644;2023-06-10T06:54:45;10.75;;;7.97;;
38935;SDS011;66589;47.458;9.644;2023-06-10T06:57:10;8.25;;;6.43;;
38935;SDS011;66589;47.458;9.644;2023-06-10T06:59:36;7.95;;;6.53;;
38935;SDS011;66589;47.458;9.644;2023-06-10T07:02:02;7.22;;;6.18;;
38935;SDS011;66589;47.458;9.644;2023-06-10T07:04:28;7.65;;;6.63;;
38935;SDS011;66589;47.458;9.644;2023-06-10T07:06:55;9.32;;;6.47;;
38935;SDS011;66589;47.458;9.644;2023-06-10T07:09:21;9.10;;;6.93;;
38935;SDS011;66589;47.458;9.644;2023-06-10T07:11:46;8.63;;;6.30;;
38935;SDS011;66589;47.458;9.644;2023-06-10T07:14:12;14.95;;;7.35;;
38935;SDS011;66589;47.458;9.644;2023-06-10T07:16:38;9.63;;;6.20;;
38935;SDS011;66589;47.458;9.644;2023-06-10T07:19:03;8.57;;;7.03;;
38935;SDS011;66589;47.458;9.644;2023-06-10T07:21:30;9.80;;;7.75;;
38935;SDS011;66589;47.458;9.644;2023-06-10T07:23:55;11.52;;;7.75;;
38935;SDS011;66589;47.458;9.644;2023-06-10T07:26:22;8.02;;;7.25;;
38935;SDS011;66589;47.458;9.644;2023-06-10T07:28:48;7.95;;;7.15;;
38935;SDS011;66589;47.458;9.644;2023-06-10T07:31:13;10.10;;;6.57;;
38935;SDS011;66589;47.458;9.644;2023-06-10T07:33:39;8.02;;;7.28;;
38935;SDS011;66589;47.458;9.644;2023-06-10T07:36:05;7.07;;;6.25;;
38935;SDS011;66589;47.458;9.644;2023-06-10T07:38:31;9.75;;;7.25;;
38935;SDS011;66589;47.458;9.644;2023-06-10T07:40:57;9.60;;;7.68;;
38935;SDS011;66589;47.458;9.644;2023-06-10T07:43:23;10.65;;;8.20;;
38935;SDS011;66589;47.458;9.644;2023-06-10T07:45:49;10.15;;;8.70;;
38935;SDS011;66589;47.458;9.644;2023-06-10T07:48:15;9.20;;;8.07;;
38935;SDS011;66589;47.458;9.644;2023-06-10T07:50:40;9.90;;;8.88;;
38935;SDS011;66589;47.458;9.644;2023-06-10T07:53:06;11.10;;;8.73;;
38935;SDS011;66589;47.458;9.644;2023-06-10T07:55:32;9.02;;;8.18;;
38935;SDS011;66589;47.458;9.644;2023-06-10T07:57:57;11.88;;;9.35;;
38935;SDS011;66589;47.458;9.644;2023-06-10T08:00:23;7.65;;;6.63;;
38935;SDS011;66589;47.458;9.644;2023-06-10T08:02:49;11.38;;;8.55;;
38935;SDS011;66589;47.458;9.644;2023-06-10T08:05:15;10.73;;;8.48;;
38935;SDS011;66589;47.458;9.644;2023-06-10T08:07:41;9.93;;;8.85;;
38935;SDS011;66589;47.458;9.644;2023-06-10T08:10:07;10.98;;;9.75;;
38935;SDS011;66589;47.458;9.644;2023-06-10T08:12:33;10.70;;;8.73;;
38935;SDS011;66589;47.458;9.644;2023-06-10T08:15:00;9.73;;;8.80;;
38935;SDS011;66589;47.458;9.644;2023-06-10T08:17:26;9.68;;;8.68;;
38935;SDS011;66589;47.458;9.644;2023-06-10T08:19:51;11.23;;;10.02;;
38935;SDS011;66589;47.458;9.644;2023-06-10T08:22:17;10.40;;;9.30;;
38935;SDS011;66589;47.458;9.644;2023-06-10T08:24:43;11.88;;;10.77;;
38935;SDS011;66589;47.458;9.644;2023-06-10T08:27:09;11.80;;;9.80;;
38935;SDS011;66589;47.458;9.644;2023-06-10T08:29:35;11.23;;;10.13;;
38935;SDS011;66589;47.458;9.644;2023-06-10T08:32:01;10.15;;;8.88;;
38935;SDS011;66589;47.458;9.644;2023-06-10T08:34:27;10.20;;;9.15;;
38935;SDS011;66589;47.458;9.644;2023-06-10T08:36:52;11.07;;;10.07;;
38935;SDS011;66589;47.458;9.644;2023-06-10T08:39:20;11.27;;;10.27;;
38935;SDS011;66589;47.458;9.644;2023-06-10T08:41:54;10.50;;;8.65;;
38935;SDS011;66589;47.458;9.644;2023-06-10T08:44:40;10.02;;;8.88;;
38935;SDS011;66589;47.458;9.644;2023-06-10T08:47:12;12.70;;;9.50;;
38935;SDS011;66589;47.458;9.644;2023-06-10T08:49:45;10.55;;;6.45;;
38935;SDS011;66589;47.458;9.644;2023-06-10T08:52:18;10.63;;;9.50;;
38935;SDS011;66589;47.458;9.644;2023-06-10T08:54:48;9.70;;;8.80;;
38935;SDS011;66589;47.458;9.644;2023-06-10T08:59:46;10.43;;;9.43;;
38935;SDS011;66589;47.458;9.644;2023-06-10T09:02:13;11.75;;;10.35;;
38935;SDS011;66589;47.458;9.644;2023-06-10T09:04:42;11.15;;;9.35;;
38935;SDS011;66589;47.458;9.644;2023-06-10T09:07:08;12.02;;;10.07;;
38935;SDS011;66589;47.458;9.644;2023-06-10T09:09:34;11.30;;;9.48;;
38935;SDS011;66589;47.458;9.644;2023-06-10T09:12:01;12.98;;;11.05;;
38935;SDS011;66589;47.458;9.644;2023-06-10T09:14:26;9.68;;;8.77;;
38935;SDS011;66589;47.458;9.644;2023-06-10T09:16:52;13.27;;;10.73;;
38935;SDS011;66589;47.458;9.644;2023-06-10T09:19:21;13.98;;;12.07;;
38935;SDS011;66589;47.458;9.644;2023-06-10T09:21:49;12.52;;;10.00;;
38935;SDS011;66589;47.458;9.644;2023-06-10T09:24:15;12.95;;;11.75;;
38935;SDS011;66589;47.458;9.644;2023-06-10T09:26:41;11.40;;;10.40;;
38935;SDS011;66589;47.458;9.644;2023-06-10T09:29:07;10.15;;;8.95;;
38935;SDS011;66589;47.458;9.644;2023-06-10T09:31:35;11.45;;;9.25;;
38935;SDS011;66589;47.458;9.644;2023-06-10T09:34:05;12.30;;;10.23;;
38935;SDS011;66589;47.458;9.644;2023-06-10T09:36:38;11.40;;;10.35;;
38935;SDS011;66589;47.458;9.644;2023-06-10T09:39:05;11.30;;;10.10;;
38935;SDS011;66589;47.458;9.644;2023-06-10T09:41:41;10.57;;;9.52;;
38935;SDS011;66589;47.458;9.644;2023-06-10T09:44:13;11.32;;;9.00;;
38935;SDS011;66589;47.458;9.644;2023-06-10T09:46:48;9.38;;;8.32;;
38935;SDS011;66589;47.458;9.644;2023-06-10T09:49:16;11.32;;;9.73;;
38935;SDS011;66589;47.458;9.644;2023-06-10T09:51:51;10.75;;;9.10;;
38935;SDS011;66589;47.458;9.644;2023-06-10T09:54:18;9.07;;;7.68;;
38935;SDS011;66589;47.458;9.644;2023-06-10T09:56:48;8.85;;;7.93;;
38935;SDS011;66589;47.458;9.644;2023-06-10T09:59:15;9.48;;;8.38;;
38935;SDS011;66589;47.458;9.644;2023-06-10T10:01:41;8.10;;;7.13;;
38935;SDS011;66589;47.458;9.644;2023-06-10T10:04:07;11.98;;;7.35;;
38935;SDS011;66589;47.458;9.644;2023-06-10T10:06:32;7.28;;;6.57;;
38935;SDS011;66589;47.458;9.644;2023-06-10T10:09:00;7.50;;;5.70;;
38935;SDS011;66589;47.458;9.644;2023-06-10T10:11:26;10.48;;;6.70;;
38935;SDS011;66589;47.458;9.644;2023-06-10T10:13:52;8.70;;;6.25;;
38935;SDS011;66589;47.458;9.644;2023-06-10T10:16:36;6.90;;;6.20;;
38935;SDS011;66589;47.458;9.644;2023-06-10T10:19:40;11.63;;;5.63;;
38935;SDS011;66589;47.458;9.644;2023-06-10T10:22:02;5.65;;;4.78;;
38935;SDS011;66589;47.458;9.644;2023-06-10T10:24:36;6.47;;;5.43;;
38935;SDS011;66589;47.458;9.644;2023-06-10T10:27:07;5.07;;;3.80;;
38935;SDS011;66589;47.458;9.644;2023-06-10T10:29:42;9.23;;;4.55;;
38935;SDS011;66589;47.458;9.644;2023-06-10T10:32:12;6.82;;;5.18;;
38935;SDS011;66589;47.458;9.644;2023-06-10T10:37:17;7.97;;;4.40;;
38935;SDS011;66589;47.458;9.644;2023-06-10T10:39:45;7.55;;;5.03;;
38935;SDS011;66589;47.458;9.644;2023-06-10T10:42:12;8.27;;;4.90;;
38935;SDS011;66589;47.458;9.644;2023-06-10T10:44:38;7.35;;;4.43;;
38935;SDS011;66589;47.458;9.644;2023-06-10T10:47:07;5.82;;;4.68;;
38935;SDS011;66589;47.458;9.644;2023-06-10T10:49:35;9.15;;;5.10;;
38935;SDS011;66589;47.458;9.644;2023-06-10T10:52:02;4.75;;;3.95;;
38935;SDS011;66589;47.458;9.644;2023-06-10T10:54:32;5.95;;;4.50;;
38935;SDS011;66589;47.458;9.644;2023-06-10T10:57:09;6.18;;;4.53;;
38935;SDS011;66589;47.458;9.644;2023-06-10T11:02:17;5.13;;;3.92;;
38935;SDS011;66589;47.458;9.644;2023-06-10T11:04:47;6.97;;;4.68;;
38935;SDS011;66589;47.458;9.644;2023-06-10T11:07:13;4.72;;;3.85;;
38935;SDS011;66589;47.458;9.644;2023-06-10T11:12:40;8.00;;;3.90;;
38935;SDS011;66589;47.458;9.644;2023-06-10T11:15:22;6.22;;;3.63;;
38935;SDS011;66589;47.458;9.644;2023-06-10T11:26:43;10.93;;;2.67;;
38935;SDS011;66589;47.458;9.644;2023-06-10T11:31:19;6.82;;;3.58;;
38935;SDS011;66589;47.458;9.644;2023-06-10T11:34:05;8.57;;;4.15;;
38935;SDS011;66589;47.458;9.644;2023-06-10T11:36:32;10.02;;;4.35;;
38935;SDS011;66589;47.458;9.644;2023-06-10T11:39:04;6.32;;;4.05;;
38935;SDS011;66589;47.458;9.644;2023-06-10T11:41:31;7.95;;;4.25;;
38935;SDS011;66589;47.458;9.644;2023-06-10T11:44:02;9.32;;;4.28;;
38935;SDS011;66589;47.458;9.644;2023-06-10T11:46:29;4.20;;;3.42;;
38935;SDS011;66589;47.458;9.644;2023-06-10T11:48:55;7.68;;;4.25;;
38935;SDS011;66589;47.458;9.644;2023-06-10T11:51:26;7.70;;;3.75;;
38935;SDS011;66589;47.458;9.644;2023-06-10T11:53:53;6.32;;;4.20;;
38935;SDS011;66589;47.458;9.644;2023-06-10T11:56:20;6.28;;;4.10;;
38935;SDS011;66589;47.458;9.644;2023-06-10T11:59:00;13.68;;;4.38;;
38935;SDS011;66589;47.458;9.644;2023-06-10T12:01:30;9.13;;;4.55;;
38935;SDS011;66589;47.458;9.644;2023-06-10T12:04:00;6.80;;;4.20;;
38935;SDS011;66589;47.458;9.644;2023-06-10T12:06:37;6.78;;;4.18;;
38935;SDS011;66589;47.458;9.644;2023-06-10T12:09:24;5.03;;;3.97;;
38935;SDS011;66589;47.458;9.644;2023-06-10T12:12:11;18.08;;;5.22;;
38935;SDS011;66589;47.458;9.644;2023-06-10T12:14:56;8.13;;;3.97;;
38935;SDS011;66589;47.458;9.644;2023-06-10T12:20:02;6.78;;;5.22;;
38935;SDS011;66589;47.458;9.644;2023-06-10T12:22:40;5.70;;;4.53;;
38935;SDS011;66589;47.458;9.644;2023-06-10T12:25:07;8.90;;;4.20;;
38935;SDS011;66589;47.458;9.644;2023-06-10T12:27:35;5.97;;;3.97;;
38935;SDS011;66589;47.458;9.644;2023-06-10T12:30:02;7.68;;;4.63;;
38935;SDS011;66589;47.458;9.644;2023-06-10T12:35:06;5.30;;;3.10;;
38935;SDS011;66589;47.458;9.644;2023-06-10T12:37:33;5.80;;;4.60;;
38935;SDS011;66589;47.458;9.644;2023-06-10T12:39:59;8.50;;;4.95;;
38935;SDS011;66589;47.458;9.644;2023-06-10T12:42:26;8.15;;;5.05;;
38935;SDS011;66589;47.458;9.644;2023-06-10T12:44:54;6.63;;;5.35;;
38935;SDS011;66589;47.458;9.644;2023-06-10T12:47:32;7.68;;;4.85;;
38935;SDS011;66589;47.458;9.644;2023-06-10T12:50:00;8.13;;;5.03;;
38935;SDS011;66589;47.458;9.644;2023-06-10T12:52:26;6.95;;;5.15;;
38935;SDS011;66589;47.458;9.644;2023-06-10T12:54:53;6.97;;;4.93;;
38935;SDS011;66589;47.458;9.644;2023-06-10T12:57:20;7.47;;;4.30;;
38935;SDS011;66589;47.458;9.644;2023-06-10T12:59:46;6.88;;;4.50;;
38935;SDS011;66589;47.458;9.644;2023-06-10T13:02:17;5.38;;;3.67;;
38935;SDS011;66589;47.458;9.644;2023-06-10T13:04:48;6.78;;;4.90;;
38935;SDS011;66589;47.458;9.644;2023-06-10T13:07:14;7.78;;;3.92;;
38935;SDS011;66589;47.458;9.644;2023-06-10T13:09:40;6.10;;;3.95;;
38935;SDS011;66589;47.458;9.644;2023-06-10T13:12:06;8.48;;;4.05;;
38935;SDS011;66589;47.458;9.644;2023-06-10T13:14:33;5.55;;;3.13;;
38935;SDS011;66589;47.458;9.644;2023-06-10T13:16:58;7.05;;;4.25;;
38935;SDS011;66589;47.458;9.644;2023-06-10T13:19:24;10.70;;;4.47;;
38935;SDS011;66589;47.458;9.644;2023-06-10T13:21:51;6.38;;;4.25;;
38935;SDS011;66589;47.458;9.644;2023-06-10T13:24:17;6.28;;;4.95;;
38935;SDS011;66589;47.458;9.644;2023-06-10T13:26:43;5.22;;;4.45;;
38935;SDS011;66589;47.458;9.644;2023-06-10T13:29:09;6.25;;;3.40;;
38935;SDS011;66589;47.458;9.644;2023-06-10T13:31:39;5.75;;;4.70;;
38935;SDS011;66589;47.458;9.644;2023-06-10T13:34:05;6.68;;;4.60;;
38935;SDS011;66589;47.458;9.644;2023-06-10T13:36:31;5.57;;;3.85;;
38935;SDS011;66589;47.458;9.644;2023-06-10T13:38:57;6.28;;;4.45;;
38935;SDS011;66589;47.458;9.644;2023-06-10T13:41:22;5.82;;;4.05;;
38935;SDS011;66589;47.458;9.644;2023-06-10T13:43:48;5.60;;;4.05;;
38935;SDS011;66589;47.458;9.644;2023-06-10T13:46:14;6.43;;;3.97;;
38935;SDS011;66589;47.458;9.644;2023-06-10T13:48:40;5.38;;;3.60;;
38935;SDS011;66589;47.458;9.644;2023-06-10T13:51:05;5.55;;;2.70;;
38935;SDS011;66589;47.458;9.644;2023-06-10T13:53:31;4.78;;;3.22;;
38935;SDS011;66589;47.458;9.644;2023-06-10T13:55:57;6.53;;;3.47;;
38935;SDS011;66589;47.458;9.644;2023-06-10T13:58:23;5.90;;;4.13;;
38935;SDS011;66589;47.458;9.644;2023-06-10T14:00:49;4.63;;;3.60;;
38935;SDS011;66589;47.458;9.644;2023-06-10T14:03:14;4.25;;;3.75;;
38935;SDS011;66589;47.458;9.644;2023-06-10T14:05:40;4.82;;;3.80;;
38935;SDS011;66589;47.458;9.644;2023-06-10T14:08:06;6.47;;;3.97;;
38935;SDS011;66589;47.458;9.644;2023-06-10T14:10:32;6.80;;;3.10;;
38935;SDS011;66589;47.458;9.644;2023-06-10T14:12:58;5.43;;;3.25;;
38935;SDS011;66589;47.458;9.644;2023-06-10T14:15:25;6.35;;;2.63;;
38935;SDS011;66589;47.458;9.644;2023-06-10T14:17:51;5.53;;;3.92;;
38935;SDS011;66589;47.458;9.644;2023-06-10T14:20:16;5.88;;;3.28;;
38935;SDS011;66589;47.458;9.644;2023-06-10T14:22:42;4.82;;;3.00;;
38935;SDS011;66589;47.458;9.644;2023-06-10T14:25:08;5.43;;;3.60;;
38935;SDS011;66589;47.458;9.644;2023-06-10T14:27:34;5.15;;;4.03;;
38935;SDS011;66589;47.458;9.644;2023-06-10T14:29:59;6.35;;;3.53;;
38935;SDS011;66589;47.458;9.644;2023-06-10T14:32:25;4.93;;;3.60;;
38935;SDS011;66589;47.458;9.644;2023-06-10T14:34:51;5.95;;;3.80;;
38935;SDS011;66589;47.458;9.644;2023-06-10T14:37:16;5.20;;;3.28;;
38935;SDS011;66589;47.458;9.644;2023-06-10T14:39:42;4.85;;;4.05;;
38935;SDS011;66589;47.458;9.644;2023-06-10T14:42:08;3.90;;;3.10;;
38935;SDS011;66589;47.458;9.644;2023-06-10T14:44:34;5.78;;;3.58;;
38935;SDS011;66589;47.458;9.644;2023-06-10T14:46:59;5.55;;;3.75;;
38935;SDS011;66589;47.458;9.644;2023-06-10T14:49:25;4.43;;;3.40;;
38935;SDS011;66589;47.458;9.644;2023-06-10T14:51:50;6.68;;;3.53;;
38935;SDS011;66589;47.458;9.644;2023-06-10T14:54:16;6.07;;;3.30;;
38935;SDS011;66589;47.458;9.644;2023-06-10T14:56:42;4.28;;;3.08;;
38935;SDS011;66589;47.458;9.644;2023-06-10T14:59:08;6.18;;;3.25;;
38935;SDS011;66589;47.458;9.644;2023-06-10T15:01:33;9.20;;;3.50;;
38935;SDS011;66589;47.458;9.644;2023-06-10T15:03:59;4.50;;;3.05;;
38935;SDS011;66589;47.458;9.644;2023-06-10T15:06:24;7.05;;;3.40;;
38935;SDS011;66589;47.458;9.644;2023-06-10T15:08:50;4.57;;;3.00;;
38935;SDS011;66589;47.458;9.644;2023-06-10T15:11:16;4.95;;;3.17;;
38935;SDS011;66589;47.458;9.644;2023-06-10T15:13:42;6.13;;;3.05;;
38935;SDS011;66589;47.458;9.644;2023-06-10T15:16:08;3.30;;;2.85;;
38935;SDS011;66589;47.458;9.644;2023-06-10T15:18:34;4.93;;;2.13;;
38935;SDS011;66589;47.458;9.644;2023-06-10T15:20:59;4.43;;;3.15;;
38935;SDS011;66589;47.458;9.644;2023-06-10T15:23:25;3.83;;;2.67;;
38935;SDS011;66589;47.458;9.644;2023-06-10T15:25:51;4.70;;;3.38;;
38935;SDS011;66589;47.458;9.644;2023-06-10T15:28:16;4.22;;;3.08;;
38935;SDS011;66589;47.458;9.644;2023-06-10T15:30:42;5.10;;;2.25;;
38935;SDS011;66589;47.458;9.644;2023-06-10T15:33:08;7.15;;;3.38;;
38935;SDS011;66589;47.458;9.644;2023-06-10T15:35:33;4.82;;;2.63;;
38935;SDS011;66589;47.458;9.644;2023-06-10T15:37:59;3.55;;;2.20;;
38935;SDS011;66589;47.458;9.644;2023-06-10T15:40:25;5.88;;;3.10;;
38935;SDS011;66589;47.458;9.644;2023-06-10T15:42:51;5.07;;;2.85;;
38935;SDS011;66589;47.458;9.644;2023-06-10T15:45:17;5.25;;;2.83;;
38935;SDS011;66589;47.458;9.644;2023-06-10T15:47:42;4.78;;;2.63;;
38935;SDS011;66589;47.458;9.644;2023-06-10T15:50:08;7.68;;;2.38;;
38935;SDS011;66589;47.458;9.644;2023-06-10T15:52:35;8.88;;;2.63;;
38935;SDS011;66589;47.458;9.644;2023-06-10T15:55:00;7.45;;;2.70;;
38935;SDS011;66589;47.458;9.644;2023-06-10T15:57:27;5.32;;;2.60;;
38935;SDS011;66589;47.458;9.644;2023-06-10T15:59:53;4.28;;;2.53;;
38935;SDS011;66589;47.458;9.644;2023-06-10T16:02:19;4.20;;;2.58;;
38935;SDS011;66589;47.458;9.644;2023-06-10T16:04:44;3.55;;;2.42;;
38935;SDS011;66589;47.458;9.644;2023-06-10T16:07:10;4.10;;;2.63;;
38935;SDS011;66589;47.458;9.644;2023-06-10T16:09:36;3.85;;;2.40;;
38935;SDS011;66589;47.458;9.644;2023-06-10T16:12:02;4.10;;;1.92;;
38935;SDS011;66589;47.458;9.644;2023-06-10T16:14:28;4.88;;;2.30;;
38935;SDS011;66589;47.458;9.644;2023-06-10T16:16:54;2.72;;;1.88;;
38935;SDS011;66589;47.458;9.644;2023-06-10T16:19:23;4.20;;;2.35;;
38935;SDS011;66589;47.458;9.644;2023-06-10T16:21:49;3.30;;;2.60;;
38935;SDS011;66589;47.458;9.644;2023-06-10T16:24:15;4.60;;;2.50;;
38935;SDS011;66589;47.458;9.644;2023-06-10T16:26:41;2.88;;;2.17;;
38935;SDS011;66589;47.458;9.644;2023-06-10T16:29:07;4.63;;;2.28;;
38935;SDS011;66589;47.458;9.644;2023-06-10T16:31:33;2.50;;;2.05;;
38935;SDS011;66589;47.458;9.644;2023-06-10T16:33:59;4.13;;;2.38;;
38935;SDS011;66589;47.458;9.644;2023-06-10T16:36:25;2.88;;;1.60;;
38935;SDS011;66589;47.458;9.644;2023-06-10T16:38:51;3.15;;;2.00;;
38935;SDS011;66589;47.458;9.644;2023-06-10T16:41:19;3.33;;;2.17;;
38935;SDS011;66589;47.458;9.644;2023-06-10T16:43:45;3.63;;;2.22;;
38935;SDS011;66589;47.458;9.644;2023-06-10T16:46:10;3.03;;;2.15;;
38935;SDS011;66589;47.458;9.644;2023-06-10T16:48:36;3.78;;;2.35;;
38935;SDS011;66589;47.458;9.644;2023-06-10T16:51:02;2.80;;;1.85;;
38935;SDS011;66589;47.458;9.644;2023-06-10T16:53:28;4.88;;;1.98;;
38935;SDS011;66589;47.458;9.644;2023-06-10T16:55:54;1.73;;;1.02;;
38935;SDS011;66589;47.458;9.644;2023-06-10T16:58:19;4.20;;;1.05;;
38935;SDS011;66589;47.458;9.644;2023-06-10T17:00:45;2.67;;;1.27;;
38935;SDS011;66589;47.458;9.644;2023-06-10T17:03:12;2.00;;;1.80;;
38935;SDS011;66589;47.458;9.644;2023-06-10T17:05:41;2.45;;;2.00;;
38935;SDS011;66589;47.458;9.644;2023-06-10T17:08:06;3.53;;;1.50;;
38935;SDS011;66589;47.458;9.644;2023-06-10T17:10:32;1.80;;;1.42;;
38935;SDS011;66589;47.458;9.644;2023-06-10T17:12:59;4.63;;;1.60;;
38935;SDS011;66589;47.458;9.644;2023-06-10T17:15:25;2.92;;;1.45;;
38935;SDS011;66589;47.458;9.644;2023-06-10T17:17:51;5.75;;;1.48;;
38935;SDS011;66589;47.458;9.644;2023-06-10T17:20:16;2.50;;;1.75;;
38935;SDS011;66589;47.458;9.644;2023-06-10T17:22:42;5.78;;;2.25;;
38935;SDS011;66589;47.458;9.644;2023-06-10T17:25:08;4.40;;;1.83;;
38935;SDS011;66589;47.458;9.644;2023-06-10T17:27:34;3.38;;;1.50;;
38935;SDS011;66589;47.458;9.644;2023-06-10T17:29:59;4.57;;;1.60;;
38935;SDS011;66589;47.458;9.644;2023-06-10T17:32:25;3.20;;;2.08;;
38935;SDS011;66589;47.458;9.644;2023-06-10T17:34:51;2.42;;;1.60;;
38935;SDS011;66589;47.458;9.644;2023-06-10T17:37:16;3.38;;;2.22;;
38935;SDS011;66589;47.458;9.644;2023-06-10T17:39:42;4.80;;;2.30;;
38935;SDS011;66589;47.458;9.644;2023-06-10T17:42:08;4.38;;;1.35;;
38935;SDS011;66589;47.458;9.644;2023-06-10T17:44:33;2.85;;;1.60;;
38935;SDS011;66589;47.458;9.644;2023-06-10T17:46:59;2.83;;;1.80;;
38935;SDS011;66589;47.458;9.644;2023-06-10T17:49:25;4.05;;;2.10;;
38935;SDS011;66589;47.458;9.644;2023-06-10T17:51:50;2.72;;;1.90;;
38935;SDS011;66589;47.458;9.644;2023-06-10T17:54:17;3.42;;;1.58;;
38935;SDS011;66589;47.458;9.644;2023-06-10T17:56:44;4.30;;;1.88;;
38935;SDS011;66589;47.458;9.644;2023-06-10T17:59:10;3.65;;;2.00;;
38935;SDS011;66589;47.458;9.644;2023-06-10T18:01:36;2.97;;;1.90;;
38935;SDS011;66589;47.458;9.644;2023-06-10T18:04:02;2.85;;;1.73;;
38935;SDS011;66589;47.458;9.644;2023-06-10T18:06:32;2.63;;;1.73;;
38935;SDS011;66589;47.458;9.644;2023-06-10T18:08:58;3.75;;;1.80;;
38935;SDS011;66589;47.458;9.644;2023-06-10T18:11:23;2.38;;;1.75;;
38935;SDS011;66589;47.458;9.644;2023-06-10T18:13:50;2.70;;;1.60;;
38935;SDS011;66589;47.458;9.644;2023-06-10T18:16:16;2.45;;;1.77;;
38935;SDS011;66589;47.458;9.644;2023-06-10T18:18:42;3.05;;;1.60;;
38935;SDS011;66589;47.458;9.644;2023-06-10T18:21:10;2.72;;;1.80;;
38935;SDS011;66589;47.458;9.644;2023-06-10T18:23:35;3.17;;;1.33;;
38935;SDS011;66589;47.458;9.644;2023-06-10T18:26:01;2.67;;;1.73;;
38935;SDS011;66589;47.458;9.644;2023-06-10T18:28:27;2.35;;;1.75;;
38935;SDS011;66589;47.458;9.644;2023-06-10T18:30:58;4.30;;;2.20;;